Time;durP1;ratioP1;P1;durP2;ratioP2;P2;SDS_P1;SDS_P2;PMS_P1;PMS_P2;Temp;Humidity;BMP_temperature;BMP_pressure;BME280_temperature;BME280_humidity;BME280_pressure;Samples;Min_cycle;Max_cycle;Signal;HPM_P1;HPM_P2
2022/01/21 00:01:18;;;;;;;5.65;2.90;;;6.20;99.00;;;;;;5052366;28;20299;-71
2022/01/21 00:03:44;;;;;;;9.07;3.25;;;6.10;98.90;;;;;;5050481;28;20783;-64
2022/01/21 00:06:10;;;;;;;10.15;3.95;;;6.00;98.90;;;;;;5053060;28;20183;-64
2022/01/21 00:08:37;;;;;;;5.50;4.00;;;5.90;99.50;;;;;;5044341;28;20231;-64
2022/01/21 00:11:03;;;;;;;3.50;3.20;;;5.90;99.70;;;;;;5051028;28;20173;-64
2022/01/21 00:13:39;;;;;;;6.30;3.65;;;5.90;99.90;;;;;;5051555;28;20200;-64
2022/01/21 00:16:07;;;;;;;12.50;3.20;;;5.90;99.90;;;;;;5049134;28;20208;-64
2022/01/21 00:18:34;;;;;;;11.38;5.43;;;6.00;99.90;;;;;;5031041;28;20284;-64
2022/01/21 00:31:58;;;;;;;5.55;2.90;;;5.90;99.90;;;;;;5059122;28;20173;-66
2022/01/21 00:34:24;;;;;;;8.00;3.53;;;5.90;99.90;;;;;;5051611;28;20736;-66
2022/01/21 00:36:50;;;;;;;8.67;3.60;;;5.90;99.90;;;;;;5052032;28;20189;-66
2022/01/21 00:39:19;;;;;;;7.95;3.63;;;5.90;99.90;;;;;;5051963;28;20918;-64
2022/01/21 00:41:57;;;;;;;5.18;3.22;;;5.90;99.90;;;;;;5052322;28;20309;-67
2022/01/21 00:44:23;;;;;;;9.25;5.55;;;6.10;99.90;;;;;;5052410;28;20232;-66
2022/01/21 00:46:49;;;;;;;7.27;3.83;;;6.00;99.90;;;;;;5052217;28;20239;-66
2022/01/21 00:49:15;;;;;;;7.57;3.17;;;6.00;99.90;;;;;;5051954;28;20670;-65
2022/01/21 00:51:42;;;;;;;5.95;3.20;;;5.50;99.90;;;;;;5051768;28;20302;-66
2022/01/21 00:54:07;;;;;;;10.48;3.63;;;6.00;99.90;;;;;;5051946;28;20190;-66
2022/01/21 00:56:33;;;;;;;13.00;4.23;;;5.90;99.90;;;;;;5052146;28;20184;-65
2022/01/21 00:58:59;;;;;;;7.63;3.17;;;5.90;99.90;;;;;;5051783;28;20467;-65
2022/01/21 01:01:25;;;;;;;6.13;3.50;;;5.50;99.90;;;;;;5050987;28;20178;-66
2022/01/21 01:03:50;;;;;;;6.23;3.90;;;5.90;99.90;;;;;;5052619;28;20224;-66
2022/01/21 01:06:16;;;;;;;8.20;3.40;;;5.90;99.90;;;;;;5072348;28;20181;-66
2022/01/21 01:08:42;;;;;;;6.45;3.90;;;6.00;99.90;;;;;;5071249;28;20230;-66
2022/01/21 01:21:30;;;;;;;6.85;5.20;;;5.70;99.90;;;;;;5060101;28;20271;-66
2022/01/21 01:29:19;;;;;;;10.93;5.07;;;5.50;99.90;;;;;;5054043;28;20173;-66
2022/01/21 01:31:46;;;;;;;9.70;4.60;;;5.90;99.90;;;;;;5054765;28;20177;-66
2022/01/21 01:34:12;;;;;;;8.38;5.28;;;6.00;99.90;;;;;;5021263;28;20178;-65
2022/01/21 01:36:39;;;;;;;11.60;5.10;;;6.00;99.90;;;;;;5054537;28;20638;-65
2022/01/21 01:41:41;;;;;;;6.20;4.47;;;6.00;99.90;;;;;;5040187;28;20228;-65
2022/01/21 01:49:37;;;;;;;7.47;4.40;;;6.00;99.90;;;;;;5034639;28;20169;-65
2022/01/21 01:52:09;;;;;;;11.90;4.85;;;6.00;99.90;;;;;;5035694;28;20309;-65
2022/01/21 01:54:41;;;;;;;7.70;4.30;;;6.00;99.90;;;;;;5040784;28;20190;-65
2022/01/21 01:57:08;;;;;;;9.13;4.85;;;6.00;99.90;;;;;;5047042;28;20176;-65
2022/01/21 01:59:34;;;;;;;12.23;4.10;;;6.10;99.90;;;;;;5036023;28;20373;-65
2022/01/21 02:02:04;;;;;;;6.87;4.40;;;5.60;99.90;;;;;;5055232;28;20166;-65
2022/01/21 02:04:30;;;;;;;8.50;3.80;;;5.80;99.90;;;;;;5019868;28;20463;-65
2022/01/21 02:06:56;;;;;;;9.45;4.40;;;6.20;99.90;;;;;;5054989;28;20178;-65
2022/01/21 02:09:23;;;;;;;8.30;4.33;;;6.00;99.90;;;;;;5040907;28;20182;-65
2022/01/21 02:11:49;;;;;;;5.72;3.75;;;5.80;99.90;;;;;;5034530;28;20257;-65
2022/01/21 02:14:22;;;;;;;8.75;4.85;;;6.00;99.90;;;;;;5034634;28;20175;-66
2022/01/21 02:22:13;;;;;;;11.98;3.85;;;6.00;99.90;;;;;;5034688;28;20229;-65
2022/01/21 02:24:55;;;;;;;10.63;4.30;;;6.00;99.90;;;;;;5033900;28;20238;-66
2022/01/21 02:27:21;;;;;;;9.82;4.93;;;6.00;99.90;;;;;;5034885;28;20167;-65
2022/01/21 02:29:50;;;;;;;8.88;4.07;;;6.00;99.90;;;;;;5033627;28;20200;-65
2022/01/21 02:32:17;;;;;;;6.18;4.50;;;6.00;99.90;;;;;;5035457;28;20183;-65
2022/01/21 02:34:45;;;;;;;8.18;4.50;;;6.00;99.90;;;;;;5016398;28;20603;-66
2022/01/21 02:37:13;;;;;;;9.25;4.60;;;6.20;99.90;;;;;;5034139;28;20183;-65
2022/01/21 02:39:40;;;;;;;4.60;4.20;;;5.80;99.90;;;;;;5014953;28;20170;-65
2022/01/21 02:42:06;;;;;;;7.70;5.00;;;6.20;99.90;;;;;;5034050;28;20520;-65
2022/01/21 02:44:32;;;;;;;8.50;5.35;;;6.10;99.90;;;;;;5033321;28;20698;-65
2022/01/21 02:47:01;;;;;;;9.20;4.87;;;6.10;99.90;;;;;;5033853;28;20222;-66
2022/01/21 02:49:27;;;;;;;10.93;5.00;;;6.10;99.90;;;;;;5016900;28;20408;-71
2022/01/21 02:51:54;;;;;;;8.80;5.20;;;6.10;99.90;;;;;;5033863;28;20289;-66
2022/01/21 02:54:20;;;;;;;9.07;5.10;;;5.70;99.90;;;;;;5035185;28;20274;-65
2022/01/21 02:56:46;;;;;;;7.97;5.23;;;6.10;99.90;;;;;;5033117;28;20259;-65
2022/01/21 02:59:12;;;;;;;10.00;5.90;;;6.10;99.90;;;;;;5033839;28;20207;-65
2022/01/21 03:01:40;;;;;;;9.13;5.30;;;6.30;99.90;;;;;;5033559;28;20270;-66
2022/01/21 03:04:09;;;;;;;9.93;5.67;;;6.10;99.90;;;;;;5033668;28;20597;-66
2022/01/21 03:06:37;;;;;;;7.93;5.30;;;6.20;99.90;;;;;;5035766;28;20403;-66
2022/01/21 03:09:05;;;;;;;9.05;5.05;;;6.20;99.90;;;;;;5053672;28;20405;-65
2022/01/21 03:11:31;;;;;;;7.53;5.45;;;6.20;99.90;;;;;;5053002;28;20200;-66
2022/01/21 03:13:57;;;;;;;10.17;5.57;;;6.30;99.90;;;;;;5053786;28;20233;-65
2022/01/21 03:16:24;;;;;;;9.10;5.30;;;6.20;99.90;;;;;;5046674;28;20443;-65
2022/01/21 03:18:51;;;;;;;6.47;5.73;;;5.80;99.90;;;;;;5019673;28;20431;-65
2022/01/21 03:21:17;;;;;;;10.43;5.78;;;6.10;99.90;;;;;;5032894;28;20468;-65
2022/01/21 03:23:46;;;;;;;8.30;5.95;;;6.10;99.90;;;;;;5032790;28;20295;-65
2022/01/21 03:26:14;;;;;;;13.02;6.32;;;6.00;99.90;;;;;;5033695;28;20228;-65
2022/01/21 03:28:41;;;;;;;9.60;6.00;;;6.10;99.90;;;;;;5032545;28;20171;-65
2022/01/21 03:31:06;;;;;;;10.82;6.40;;;6.10;99.90;;;;;;5033531;28;20661;-65
2022/01/21 03:33:32;;;;;;;13.13;5.93;;;6.10;99.90;;;;;;5032746;28;20258;-66
2022/01/21 03:35:58;;;;;;;10.17;5.97;;;6.20;99.90;;;;;;5033002;28;20184;-66
2022/01/21 03:38:25;;;;;;;7.57;5.87;;;6.10;99.90;;;;;;5015403;28;20427;-65
2022/01/21 03:40:51;;;;;;;8.75;6.03;;;6.20;99.90;;;;;;5032834;28;20266;-65
2022/01/21 03:43:17;;;;;;;12.27;6.68;;;6.10;99.90;;;;;;5050754;28;20239;-65
2022/01/21 03:45:42;;;;;;;8.70;6.20;;;6.20;99.90;;;;;;5052433;28;20176;-68
2022/01/21 03:48:08;;;;;;;15.27;6.30;;;6.10;99.90;;;;;;5052310;28;20427;-65
2022/01/21 03:50:34;;;;;;;10.33;6.07;;;5.90;99.90;;;;;;5052140;28;20581;-66
2022/01/21 03:53:02;;;;;;;10.53;6.20;;;5.80;99.90;;;;;;5053220;28;20183;-65
2022/01/21 03:55:30;;;;;;;7.47;5.65;;;5.70;99.90;;;;;;5018578;28;20581;-65
2022/01/21 03:57:56;;;;;;;17.73;6.37;;;6.20;99.90;;;;;;5052398;28;20174;-65
2022/01/21 04:00:26;;;;;;;8.53;5.87;;;6.30;99.90;;;;;;5035054;28;20416;-65
2022/01/21 04:02:53;;;;;;;8.30;5.70;;;5.90;99.90;;;;;;5030341;28;20425;-65
2022/01/21 04:05:19;;;;;;;7.57;5.40;;;6.20;99.90;;;;;;5032600;28;20680;-65
2022/01/21 04:07:45;;;;;;;7.55;5.10;;;6.20;99.90;;;;;;5032357;28;20522;-65
2022/01/21 04:10:12;;;;;;;8.70;5.68;;;5.90;99.90;;;;;;5032559;28;20205;-65
2022/01/21 04:12:37;;;;;;;6.43;5.82;;;5.90;99.90;;;;;;5031812;28;20183;-66
2022/01/21 04:15:04;;;;;;;14.43;6.70;;;6.10;99.90;;;;;;5032501;28;20651;-66
2022/01/21 04:17:30;;;;;;;11.00;5.95;;;6.10;99.90;;;;;;5032268;28;20320;-71
2022/01/21 04:19:56;;;;;;;6.90;5.73;;;6.10;99.90;;;;;;5032018;28;20273;-65
2022/01/21 04:22:22;;;;;;;7.27;6.00;;;6.10;99.90;;;;;;5047401;28;20450;-65
2022/01/21 04:24:49;;;;;;;7.40;5.40;;;6.00;99.90;;;;;;5051408;28;20235;-65
2022/01/21 04:27:16;;;;;;;6.57;5.50;;;6.10;99.90;;;;;;5052691;28;20221;-65
2022/01/21 04:29:42;;;;;;;6.78;6.15;;;6.10;99.90;;;;;;5051465;28;20387;-66
2022/01/21 04:32:09;;;;;;;7.07;6.37;;;6.10;99.90;;;;;;5052651;28;20182;-65
2022/01/21 04:34:36;;;;;;;7.47;6.40;;;6.30;99.90;;;;;;5051626;28;20577;-71
2022/01/21 04:37:05;;;;;;;11.20;7.40;;;6.30;99.90;;;;;;5052265;28;20174;-65
2022/01/21 04:39:36;;;;;;;7.40;5.88;;;6.30;99.90;;;;;;5052284;28;20574;-70
2022/01/21 04:47:38;;;;;;;10.88;8.73;;;6.20;99.90;;;;;;5051673;28;20198;-70
2022/01/21 04:50:12;;;;;;;13.45;6.50;;;6.20;99.90;;;;;;5051938;28;20562;-65
2022/01/21 04:52:38;;;;;;;10.10;5.97;;;6.20;99.90;;;;;;5051641;28;20630;-65
2022/01/21 04:55:05;;;;;;;11.30;6.68;;;6.20;99.90;;;;;;5052198;28;20197;-65
2022/01/21 04:57:31;;;;;;;11.57;8.05;;;6.20;99.90;;;;;;5051904;28;20174;-65
2022/01/21 04:59:56;;;;;;;10.93;6.50;;;6.30;99.90;;;;;;5051353;28;20626;-65
2022/01/21 05:02:24;;;;;;;10.23;6.07;;;6.40;99.90;;;;;;5034293;28;20417;-65
2022/01/21 05:04:49;;;;;;;8.32;5.88;;;6.30;99.90;;;;;;5054461;28;20681;-66
2022/01/21 05:07:20;;;;;;;8.43;6.33;;;6.30;99.90;;;;;;5055935;28;20181;-65
2022/01/21 05:09:46;;;;;;;10.52;9.27;;;6.30;99.90;;;;;;5055121;28;20496;-65
2022/01/21 05:12:17;;;;;;;10.70;7.67;;;6.30;99.90;;;;;;5055093;28;20183;-65
2022/01/21 05:15:03;;;;;;;11.13;9.93;;;6.30;99.90;;;;;;5055374;28;20155;-65
2022/01/21 05:17:29;;;;;;;10.03;7.00;;;6.30;99.90;;;;;;5056256;28;20162;-65
2022/01/21 05:19:55;;;;;;;10.00;7.40;;;6.20;99.90;;;;;;5055042;28;20992;-65
2022/01/21 05:22:21;;;;;;;10.13;8.90;;;6.30;99.90;;;;;;5038470;28;20515;-65
2022/01/21 05:24:46;;;;;;;10.50;9.30;;;6.30;99.90;;;;;;5035115;28;20564;-65
2022/01/21 05:27:13;;;;;;;11.10;7.50;;;6.20;99.90;;;;;;5035547;28;20180;-65
2022/01/21 05:29:40;;;;;;;10.57;8.07;;;6.30;99.90;;;;;;5035064;28;20175;-66
2022/01/21 05:32:07;;;;;;;14.02;8.45;;;6.30;99.90;;;;;;5001429;28;20624;-65
2022/01/21 05:34:33;;;;;;;12.68;8.18;;;6.40;99.90;;;;;;5035426;28;20178;-65
2022/01/21 05:36:59;;;;;;;10.97;8.77;;;6.00;99.90;;;;;;5034863;28;20179;-65
2022/01/21 05:39:25;;;;;;;12.90;8.53;;;6.50;99.90;;;;;;5017976;28;20401;-65
2022/01/21 05:41:52;;;;;;;11.83;9.20;;;6.50;99.90;;;;;;5034809;28;20447;-65
2022/01/21 05:46:59;;;;;;;12.13;9.10;;;6.50;99.90;;;;;;5034763;28;20167;-65
2022/01/21 05:49:28;;;;;;;14.00;9.87;;;6.00;99.90;;;;;;5017945;28;20418;-65
2022/01/21 05:52:02;;;;;;;14.70;11.30;;;6.10;99.90;;;;;;5034309;28;20445;-65
2022/01/21 05:54:28;;;;;;;13.10;11.90;;;6.50;99.90;;;;;;5035494;28;20422;-65
2022/01/21 05:56:54;;;;;;;16.57;11.07;;;6.50;99.90;;;;;;5031587;28;20422;-65
2022/01/21 05:59:20;;;;;;;11.83;9.83;;;6.10;99.90;;;;;;5034987;28;20541;-65
2022/01/21 06:01:46;;;;;;;11.63;9.60;;;6.40;99.90;;;;;;5033860;28;20468;-65
2022/01/21 06:04:12;;;;;;;14.03;11.70;;;6.00;99.90;;;;;;5035069;28;20569;-65
2022/01/21 06:06:38;;;;;;;12.00;10.80;;;6.20;99.90;;;;;;5017112;28;20521;-70
2022/01/21 06:09:05;;;;;;;17.33;9.33;;;6.40;99.90;;;;;;5035134;28;20432;-65
2022/01/21 06:11:31;;;;;;;12.67;9.03;;;6.40;99.90;;;;;;5035092;28;20498;-65
2022/01/21 06:13:57;;;;;;;11.57;10.43;;;6.30;99.90;;;;;;5034085;28;20407;-65
2022/01/21 06:16:23;;;;;;;13.83;9.70;;;6.40;99.90;;;;;;5034798;28;20475;-65
2022/01/21 06:18:49;;;;;;;12.40;9.00;;;6.40;99.90;;;;;;5034384;28;20418;-66
2022/01/21 06:21:15;;;;;;;12.30;11.10;;;6.50;99.90;;;;;;5031180;28;20467;-65
2022/01/21 06:23:41;;;;;;;15.17;9.97;;;6.30;99.90;;;;;;5054011;28;20631;-71
2022/01/21 06:26:08;;;;;;;11.77;9.67;;;6.50;99.90;;;;;;5054972;28;20190;-65
2022/01/21 06:28:34;;;;;;;12.88;10.60;;;6.30;99.90;;;;;;5054610;28;20404;-65
2022/01/21 06:31:00;;;;;;;17.20;9.33;;;6.40;99.90;;;;;;5053148;28;20237;-65
2022/01/21 06:33:26;;;;;;;14.63;10.27;;;6.30;99.90;;;;;;5054636;28;20877;-65
2022/01/21 06:35:52;;;;;;;13.83;9.20;;;6.30;99.90;;;;;;5053697;28;20677;-65
2022/01/21 06:38:19;;;;;;;12.80;9.47;;;6.40;99.90;;;;;;5054242;28;20182;-65
2022/01/21 06:40:46;;;;;;;16.23;9.50;;;6.30;99.90;;;;;;5052843;28;20921;-66
2022/01/21 06:43:13;;;;;;;11.53;10.23;;;6.30;99.90;;;;;;5054628;28;20406;-66
2022/01/21 06:45:39;;;;;;;13.00;9.27;;;6.40;99.90;;;;;;5053871;28;21048;-72
2022/01/21 06:48:05;;;;;;;10.50;9.50;;;6.40;99.90;;;;;;5053951;28;20200;-66
2022/01/21 06:50:38;;;;;;;14.73;9.83;;;6.40;99.90;;;;;;5054255;28;20253;-65
2022/01/21 06:53:04;;;;;;;11.57;9.63;;;6.40;99.90;;;;;;5053410;28;20409;-66
2022/01/21 06:55:30;;;;;;;12.33;10.83;;;6.10;99.90;;;;;;5053958;28;20400;-65
2022/01/21 06:57:56;;;;;;;11.05;9.27;;;6.40;99.90;;;;;;5052023;28;20171;-66
2022/01/21 07:00:22;;;;;;;16.10;9.13;;;6.00;99.90;;;;;;5054015;28;20267;-66
2022/01/21 07:02:50;;;;;;;8.67;7.77;;;6.10;99.90;;;;;;5052966;28;20871;-66
2022/01/21 07:05:17;;;;;;;12.30;9.20;;;6.40;99.90;;;;;;5054037;28;20448;-65
2022/01/21 07:07:44;;;;;;;9.13;8.20;;;6.40;99.90;;;;;;5053006;28;20494;-71
2022/01/21 07:10:12;;;;;;;15.60;8.50;;;6.10;99.90;;;;;;5058271;28;20491;-67
2022/01/21 07:12:39;;;;;;;12.00;8.60;;;6.40;99.90;;;;;;5066828;28;20953;-66
2022/01/21 07:15:06;;;;;;;15.23;9.75;;;6.40;99.90;;;;;;5059124;28;20437;-67
2022/01/21 07:17:32;;;;;;;11.60;8.40;;;6.40;99.90;;;;;;5067609;28;20186;-66
2022/01/21 07:19:58;;;;;;;12.73;10.80;;;6.50;99.90;;;;;;5060274;28;20426;-67
2022/01/21 07:22:24;;;;;;;12.87;8.60;;;6.40;99.90;;;;;;5043218;28;20444;-67
2022/01/21 07:24:50;;;;;;;10.53;8.47;;;6.40;99.90;;;;;;5033316;28;20207;-67
2022/01/21 07:27:16;;;;;;;9.40;8.50;;;6.40;99.90;;;;;;5052220;28;20186;-67
2022/01/21 07:29:41;;;;;;;11.70;8.50;;;6.40;99.90;;;;;;5045708;28;20427;-68
2022/01/21 07:32:08;;;;;;;9.63;8.53;;;6.40;99.90;;;;;;5027694;28;20291;-67
2022/01/21 07:34:33;;;;;;;11.30;9.35;;;6.30;99.90;;;;;;5041698;28;20199;-67
2022/01/21 07:36:59;;;;;;;8.97;7.80;;;6.30;99.90;;;;;;5040547;28;20635;-67
2022/01/21 07:39:25;;;;;;;14.63;8.57;;;6.30;99.90;;;;;;5041411;28;20170;-66
2022/01/21 07:41:51;;;;;;;9.97;8.27;;;6.30;99.90;;;;;;5052850;28;20261;-67
2022/01/21 07:44:17;;;;;;;8.50;7.65;;;6.30;99.90;;;;;;5025599;28;20457;-67
2022/01/21 07:46:45;;;;;;;9.02;8.20;;;6.30;99.90;;;;;;5044736;28;20528;-71
2022/01/21 07:49:11;;;;;;;8.90;7.78;;;6.30;99.90;;;;;;5033349;28;20187;-67
2022/01/21 07:51:37;;;;;;;12.70;10.30;;;6.30;99.90;;;;;;5031888;28;20179;-66
2022/01/21 07:54:04;;;;;;;15.30;12.10;;;6.20;99.90;;;;;;5033236;28;20183;-66
2022/01/21 07:56:33;;;;;;;9.50;8.45;;;6.20;99.90;;;;;;5047961;28;20257;-65
2022/01/21 07:59:00;;;;;;;11.60;10.37;;;6.20;99.90;;;;;;5038183;28;20175;-66
2022/01/21 08:01:26;;;;;;;11.60;9.23;;;6.20;99.90;;;;;;5032947;28;20426;-66
2022/01/21 08:03:51;;;;;;;10.90;8.43;;;6.20;99.90;;;;;;5032355;28;20526;-66
2022/01/21 08:06:17;;;;;;;14.13;9.13;;;6.20;99.90;;;;;;5036973;28;20536;-66
2022/01/21 08:08:43;;;;;;;15.73;9.90;;;6.20;99.90;;;;;;5032641;28;20426;-68
2022/01/21 08:11:09;;;;;;;10.90;8.90;;;6.10;99.90;;;;;;5019627;28;20429;-66
2022/01/21 08:13:34;;;;;;;13.47;9.90;;;6.10;99.90;;;;;;5038109;28;20258;-66
2022/01/21 08:16:00;;;;;;;19.00;12.10;;;6.10;99.90;;;;;;5042101;28;20181;-66
2022/01/21 08:18:26;;;;;;;12.43;10.67;;;6.10;99.90;;;;;;5031221;28;20171;-66
2022/01/21 08:20:52;;;;;;;13.90;11.60;;;6.10;99.90;;;;;;5031265;28;20453;-67
2022/01/21 08:23:18;;;;;;;12.00;9.33;;;6.00;99.90;;;;;;5032173;28;20194;-66
2022/01/21 08:25:44;;;;;;;17.73;10.83;;;6.00;99.90;;;;;;5032092;28;20660;-70
2022/01/21 08:28:10;;;;;;;15.35;10.45;;;6.10;99.90;;;;;;5032227;28;20497;-66
2022/01/21 08:30:37;;;;;;;16.95;10.70;;;5.70;99.90;;;;;;5032542;28;20186;-66
2022/01/21 08:33:03;;;;;;;14.23;10.75;;;6.10;99.90;;;;;;5031679;28;20175;-66
2022/01/21 08:35:30;;;;;;;14.13;11.18;;;6.10;99.90;;;;;;5031873;28;20517;-67
2022/01/21 08:37:56;;;;;;;13.90;9.90;;;6.30;99.90;;;;;;5013524;28;20273;-67
2022/01/21 08:40:23;;;;;;;11.57;9.50;;;6.10;99.90;;;;;;5014113;28;20483;-66
2022/01/21 08:42:49;;;;;;;12.27;10.35;;;6.30;99.90;;;;;;5031378;28;20607;-74
2022/01/21 08:45:15;;;;;;;12.27;10.60;;;6.20;99.90;;;;;;5014559;28;20228;-68
2022/01/21 08:47:41;;;;;;;13.27;9.13;;;7.00;99.90;;;;;;5014748;28;20179;-68
2022/01/21 08:50:10;;;;;;;15.50;10.07;;;7.60;99.90;;;;;;5038743;28;20979;-68
2022/01/21 08:52:38;;;;;;;10.20;8.80;;;8.10;99.90;;;;;;5052482;28;20510;-68
2022/01/21 08:55:09;;;;;;;10.50;8.30;;;8.60;99.90;;;;;;5051922;28;20424;-69
2022/01/21 08:57:37;;;;;;;10.50;8.60;;;8.90;99.90;;;;;;5052605;28;20403;-69
2022/01/21 09:00:10;;;;;;;8.87;8.00;;;9.30;99.90;;;;;;5033642;28;20412;-68
2022/01/21 09:02:36;;;;;;;10.53;8.50;;;9.60;99.90;;;;;;5040798;28;20425;-69
2022/01/21 09:05:03;;;;;;;9.63;8.13;;;9.90;99.70;;;;;;5031303;28;20461;-68
2022/01/21 09:07:28;;;;;;;10.30;7.70;;;10.20;99.60;;;;;;5032183;28;20425;-68
2022/01/21 09:09:54;;;;;;;8.67;7.40;;;10.30;98.10;;;;;;5031767;28;20489;-69
2022/01/21 09:12:20;;;;;;;11.83;8.60;;;10.50;99.20;;;;;;5014717;28;20293;-69
2022/01/21 09:14:46;;;;;;;9.37;8.43;;;10.90;99.50;;;;;;5041091;28;20631;-67
2022/01/21 09:17:13;;;;;;;11.20;8.83;;;11.10;95.10;;;;;;5044965;28;20482;-66
2022/01/21 09:19:39;;;;;;;9.70;8.80;;;11.00;92.70;;;;;;5033540;28;20427;-67
2022/01/21 09:22:05;;;;;;;14.87;8.40;;;10.50;92.80;;;;;;5044645;28;20475;-67
2022/01/21 09:24:33;;;;;;;9.37;8.47;;;10.10;93.30;;;;;;5050581;28;20292;-67
2022/01/21 09:27:00;;;;;;;11.53;9.13;;;9.70;94.20;;;;;;5031341;28;20510;-67
2022/01/21 09:29:26;;;;;;;10.30;9.07;;;9.30;96.20;;;;;;5042930;28;20454;-67
2022/01/21 09:31:52;;;;;;;10.13;9.17;;;9.00;96.70;;;;;;5036945;28;20452;-71
2022/01/21 09:34:18;;;;;;;9.60;8.60;;;8.70;98.00;;;;;;5040158;28;20482;-67
2022/01/21 09:36:44;;;;;;;10.00;8.57;;;8.30;98.10;;;;;;5037258;28;20524;-66
2022/01/21 09:39:11;;;;;;;14.30;9.40;;;8.00;99.30;;;;;;5035114;28;20452;-66
2022/01/21 09:41:37;;;;;;;9.70;8.80;;;7.50;99.90;;;;;;5018911;28;20177;-66
2022/01/21 09:44:05;;;;;;;11.27;9.30;;;7.90;99.90;;;;;;5031121;28;20467;-66
2022/01/21 09:46:34;;;;;;;12.90;10.60;;;7.80;99.90;;;;;;5032094;28;20547;-65
2022/01/21 09:49:25;;;;;;;12.07;9.23;;;7.80;99.90;;;;;;5031697;28;20462;-65
2022/01/21 09:51:55;;;;;;;11.97;9.60;;;7.40;99.90;;;;;;5035014;28;20755;-66
2022/01/21 09:54:22;;;;;;;12.50;10.17;;;8.00;99.90;;;;;;5043882;28;20550;-66
2022/01/21 09:56:49;;;;;;;9.70;8.60;;;8.20;99.90;;;;;;5023185;28;20412;-66
2022/01/21 09:59:20;;;;;;;9.27;8.03;;;8.30;99.40;;;;;;5036947;28;20412;-65
2022/01/21 10:01:51;;;;;;;12.13;9.20;;;8.30;99.40;;;;;;5054274;28;20884;-66
2022/01/21 10:04:18;;;;;;;10.17;9.07;;;8.30;99.90;;;;;;5034709;28;20452;-66
2022/01/21 10:06:48;;;;;;;22.60;10.90;;;8.30;99.90;;;;;;5044109;28;20439;-65
2022/01/21 10:09:21;;;;;;;15.10;10.30;;;8.30;99.70;;;;;;5027173;28;20486;-66
2022/01/21 10:11:50;;;;;;;10.90;8.17;;;8.20;99.40;;;;;;5037038;28;20412;-66
2022/01/21 10:14:19;;;;;;;11.00;9.17;;;8.10;99.30;;;;;;5021730;28;20436;-66
2022/01/21 10:16:46;;;;;;;10.37;9.30;;;8.00;99.50;;;;;;5048965;28;20923;-66
2022/01/21 10:19:12;;;;;;;14.77;9.80;;;8.00;99.90;;;;;;5038600;28;20937;-66
2022/01/21 10:21:42;;;;;;;13.27;9.40;;;8.10;99.90;;;;;;5034196;28;20456;-66
2022/01/21 10:24:13;;;;;;;13.90;10.07;;;8.10;99.90;;;;;;5024758;28;20448;-68
2022/01/21 10:26:52;;;;;;;10.27;9.27;;;7.90;99.40;;;;;;5044767;28;20523;-65
2022/01/21 10:29:19;;;;;;;11.80;9.30;;;7.60;99.30;;;;;;5047344;28;20499;-65
2022/01/21 10:31:57;;;;;;;10.30;9.27;;;8.00;99.60;;;;;;5027984;28;20431;-66
2022/01/21 10:34:29;;;;;;;12.67;9.93;;;8.10;99.90;;;;;;5040559;28;20988;-66
2022/01/21 10:37:03;;;;;;;11.93;9.40;;;8.00;99.90;;;;;;5034569;28;20908;-71
2022/01/21 10:39:31;;;;;;;14.47;9.73;;;8.10;99.90;;;;;;5049305;28;20416;-65
2022/01/21 10:41:57;;;;;;;11.20;9.60;;;8.00;99.90;;;;;;5053352;28;20493;-66
2022/01/21 10:44:30;;;;;;;12.07;9.30;;;8.00;99.90;;;;;;5036593;28;20778;-66
2022/01/21 10:47:08;;;;;;;15.50;8.80;;;8.10;99.90;;;;;;5035590;28;20880;-71
2022/01/21 10:49:39;;;;;;;10.47;9.20;;;8.00;99.90;;;;;;5020889;28;20490;-67
2022/01/21 10:52:05;;;;;;;12.37;10.23;;;7.90;99.90;;;;;;5033733;28;20500;-66
2022/01/21 10:54:31;;;;;;;15.93;10.70;;;7.80;99.90;;;;;;5016544;28;20446;-66
2022/01/21 10:57:16;;;;;;;12.83;10.63;;;7.90;99.90;;;;;;5033632;28;20411;-67
2022/01/21 10:59:52;;;;;;;15.60;10.20;;;7.90;99.90;;;;;;5032472;28;20963;-67
2022/01/21 11:02:49;;;;;;;17.90;10.37;;;7.90;99.90;;;;;;5052192;28;20879;-67
2022/01/21 11:05:23;;;;;;;12.20;9.27;;;7.70;99.90;;;;;;5037142;28;20477;-67
2022/01/21 11:07:55;;;;;;;12.17;10.80;;;7.40;99.90;;;;;;5053081;28;20513;-69
2022/01/21 11:10:34;;;;;;;10.83;9.57;;;7.90;99.90;;;;;;5053878;28;20826;-69
2022/01/21 11:13:02;;;;;;;14.60;10.30;;;8.00;99.90;;;;;;5015505;28;20432;-69
2022/01/21 11:15:41;;;;;;;12.50;9.00;;;8.10;99.90;;;;;;5051364;28;20477;-69
2022/01/21 11:18:10;;;;;;;16.10;9.87;;;7.80;99.90;;;;;;5035796;28;20426;-72
2022/01/21 11:20:39;;;;;;;10.17;9.27;;;8.10;99.90;;;;;;5055903;28;20451;-69
2022/01/21 11:23:08;;;;;;;10.23;9.00;;;8.30;99.90;;;;;;5040914;28;20425;-69
2022/01/21 11:25:46;;;;;;;14.53;8.93;;;8.10;99.90;;;;;;5040297;28;20940;-69
2022/01/21 11:28:19;;;;;;;15.30;8.93;;;8.20;99.90;;;;;;5032693;28;20433;-69
2022/01/21 11:30:46;;;;;;;11.97;9.80;;;8.20;99.90;;;;;;5043497;28;20815;-69
2022/01/21 11:33:12;;;;;;;13.10;8.77;;;8.30;99.90;;;;;;5043048;28;20500;-69
2022/01/21 11:35:39;;;;;;;13.07;10.37;;;8.40;99.90;;;;;;5018310;28;20432;-71
2022/01/21 11:38:07;;;;;;;12.97;9.53;;;8.60;99.90;;;;;;5053138;28;20499;-71
2022/01/21 11:40:34;;;;;;;10.97;9.33;;;8.60;99.20;;;;;;5023899;28;20511;-69
2022/01/21 11:43:02;;;;;;;11.03;9.67;;;8.70;99.30;;;;;;5037202;28;20428;-69
2022/01/21 11:48:50;;;;;;;14.17;9.10;;;8.60;99.00;;;;;;5032708;28;20523;-69
2022/01/21 11:50:58;;;;;;;11.10;9.60;;;8.50;99.00;;;;;;5040841;28;20231;-69
2022/01/21 11:53:43;;;;;;;10.57;8.97;;;8.50;99.40;;;;;;5045360;28;20429;-69
2022/01/21 11:56:37;;;;;;;12.57;9.30;;;8.40;99.50;;;;;;5045327;28;20268;-69
2022/01/21 11:59:05;;;;;;;10.50;8.30;;;8.20;99.90;;;;;;5024636;28;20442;-69
2022/01/21 12:01:33;;;;;;;13.60;10.40;;;8.20;99.90;;;;;;5036505;28;20426;-69
2022/01/21 12:04:00;;;;;;;9.20;8.03;;;7.90;99.90;;;;;;5035226;28;20952;-76
2022/01/21 12:06:36;;;;;;;12.73;8.47;;;8.10;99.90;;;;;;5035914;28;20749;-69
2022/01/21 12:09:08;;;;;;;10.30;7.73;;;8.30;99.90;;;;;;5032287;28;20501;-69
2022/01/21 12:11:38;;;;;;;13.67;8.30;;;8.10;99.90;;;;;;5040864;28;20428;-70
2022/01/21 12:14:39;;;;;;;12.10;7.17;;;8.10;99.90;;;;;;5031122;28;20487;-70
2022/01/21 12:17:17;;;;;;;11.27;7.40;;;8.10;99.90;;;;;;5038376;28;20432;-70
2022/01/21 12:19:43;;;;;;;9.17;7.10;;;8.20;99.90;;;;;;5043634;28;20777;-69
2022/01/21 12:22:13;;;;;;;13.73;8.07;;;8.10;99.90;;;;;;5049503;28;20550;-69
2022/01/21 12:25:05;;;;;;;12.10;8.40;;;8.10;99.90;;;;;;5036220;28;20670;-69
2022/01/21 12:27:31;;;;;;;14.00;7.50;;;8.20;99.90;;;;;;5028003;28;20936;-69
2022/01/21 12:30:19;;;;;;;9.40;6.97;;;8.20;99.90;;;;;;5050472;28;20431;-76
2022/01/21 12:33:00;;;;;;;11.70;6.33;;;8.20;99.90;;;;;;5052380;28;20427;-69
2022/01/21 12:35:27;;;;;;;11.67;9.33;;;8.20;99.90;;;;;;5034530;28;20907;-69
2022/01/21 12:40:57;;;;;;;16.43;7.40;;;8.20;99.90;;;;;;5049433;28;20408;-69
2022/01/21 12:43:40;;;;;;;11.90;8.63;;;8.20;99.90;;;;;;5051353;28;20892;-69
2022/01/21 12:46:14;;;;;;;9.67;8.77;;;8.30;99.90;;;;;;5035688;28;20493;-69
2022/01/21 12:48:41;;;;;;;11.20;7.30;;;8.20;99.90;;;;;;5052074;28;20430;-69
2022/01/21 12:51:32;;;;;;;8.10;6.70;;;8.20;99.90;;;;;;5032574;28;20767;-69
2022/01/21 12:56:51;;;;;;;10.07;6.83;;;8.30;99.90;;;;;;5049730;28;20478;-72
2022/01/21 12:59:19;;;;;;;10.73;8.30;;;8.20;99.90;;;;;;5035388;28;20456;-73
2022/01/21 13:01:46;;;;;;;7.73;6.93;;;8.30;99.90;;;;;;5021823;28;20423;-71
2022/01/21 13:04:44;;;;;;;9.97;7.10;;;8.30;99.90;;;;;;5038862;28;20471;-69
2022/01/21 13:07:28;;;;;;;13.67;8.17;;;8.30;99.90;;;;;;5031934;28;20786;-69
2022/01/21 13:10:03;;;;;;;9.23;7.70;;;8.30;99.90;;;;;;5032542;28;20398;-69
2022/01/21 13:12:45;;;;;;;10.90;8.17;;;8.20;99.90;;;;;;5015114;28;20405;-69
2022/01/21 13:15:11;;;;;;;10.80;8.57;;;8.20;99.90;;;;;;5040097;28;20426;-69
2022/01/21 13:17:37;;;;;;;8.50;6.73;;;8.10;99.90;;;;;;5051496;28;20427;-69
2022/01/21 13:20:04;;;;;;;10.90;7.67;;;7.70;99.90;;;;;;5033411;28;20296;-69
2022/01/21 13:22:35;;;;;;;13.47;7.70;;;8.10;99.90;;;;;;5052573;28;20319;-69
2022/01/21 13:25:09;;;;;;;12.83;7.90;;;8.20;99.90;;;;;;5045758;28;20805;-70
2022/01/21 13:27:47;;;;;;;12.67;9.23;;;8.10;99.90;;;;;;5036318;28;20429;-69
2022/01/21 13:30:16;;;;;;;11.63;7.80;;;8.00;99.90;;;;;;5046023;28;20489;-70
2022/01/21 13:32:43;;;;;;;9.57;7.97;;;8.00;99.90;;;;;;5055071;28;20898;-72
2022/01/21 13:35:24;;;;;;;7.77;6.97;;;8.00;99.90;;;;;;5045223;28;20463;-72
2022/01/21 13:38:03;;;;;;;14.00;7.90;;;7.80;99.90;;;;;;5017881;28;20769;-71
2022/01/21 13:40:34;;;;;;;9.50;7.60;;;7.80;99.90;;;;;;5035694;28;20423;-72
2022/01/21 13:43:18;;;;;;;13.50;8.37;;;7.80;99.90;;;;;;5018754;28;20431;-71
2022/01/21 13:45:56;;;;;;;10.07;9.03;;;7.80;99.90;;;;;;5017873;28;20455;-72
2022/01/21 13:48:23;;;;;;;11.93;8.57;;;7.80;99.90;;;;;;5034770;28;20530;-72
2022/01/21 13:50:50;;;;;;;10.33;8.77;;;7.80;99.90;;;;;;5017660;28;20546;-72
2022/01/21 13:53:16;;;;;;;12.17;8.00;;;7.70;99.90;;;;;;5037935;28;20418;-72